sensor_id;sensor_type;location;lat;lon;timestamp;pressure;altitude;pressure_sealevel;temperature;humidity
36192;BME280;22233;42.708;23.360;2024-02-21T00:02:02;96049.53;;;6.82;75.16
36192;BME280;22233;42.708;23.360;2024-02-21T00:04:28;96057.59;;;7.07;73.92
36192;BME280;22233;42.708;23.360;2024-02-21T00:06:53;96054.38;;;7.05;74.29
36192;BME280;22233;42.708;23.360;2024-02-21T00:09:19;96056.25;;;7.05;74.28
36192;BME280;22233;42.708;23.360;2024-02-21T00:11:45;96043.25;;;7.17;73.36
36192;BME280;22233;42.708;23.360;2024-02-21T00:14:10;96049.91;;;7.40;72.21
36192;BME280;22233;42.708;23.360;2024-02-21T00:16:36;96060.84;;;7.14;73.85
36192;BME280;22233;42.708;23.360;2024-02-21T00:19:01;96041.38;;;7.02;73.72
36192;BME280;22233;42.708;23.360;2024-02-21T00:21:27;96035.16;;;7.12;74.10
36192;BME280;22233;42.708;23.360;2024-02-21T00:23:52;96040.63;;;6.91;74.48
36192;BME280;22233;42.708;23.360;2024-02-21T00:26:17;96051.66;;;7.10;72.80
36192;BME280;22233;42.708;23.360;2024-02-21T00:28:43;96039.56;;;6.77;74.92
36192;BME280;22233;42.708;23.360;2024-02-21T00:31:08;96038.69;;;7.07;73.28
36192;BME280;22233;42.708;23.360;2024-02-21T00:33:34;96047.66;;;6.87;74.13
36192;BME280;22233;42.708;23.360;2024-02-21T00:35:59;96047.34;;;6.99;74.22
36192;BME280;22233;42.708;23.360;2024-02-21T00:38:24;96037.44;;;6.43;75.75
36192;BME280;22233;42.708;23.360;2024-02-21T00:40:50;96030.38;;;6.83;75.20
36192;BME280;22233;42.708;23.360;2024-02-21T00:43:15;96041.44;;;6.87;74.93
36192;BME280;22233;42.708;23.360;2024-02-21T00:45:40;96032.75;;;7.00;74.64
36192;BME280;22233;42.708;23.360;2024-02-21T00:48:06;96033.53;;;7.11;72.65
36192;BME280;22233;42.708;23.360;2024-02-21T00:50:32;96017.41;;;6.90;73.63
36192;BME280;22233;42.708;23.360;2024-02-21T00:52:57;96029.28;;;6.94;74.12
36192;BME280;22233;42.708;23.360;2024-02-21T00:55:23;96013.59;;;6.91;73.92
36192;BME280;22233;42.708;23.360;2024-02-21T00:57:48;96021.59;;;7.22;72.64
36192;BME280;22233;42.708;23.360;2024-02-21T01:00:14;96026.53;;;7.05;73.84
36192;BME280;22233;42.708;23.360;2024-02-21T01:02:39;96013.81;;;7.15;73.25
36192;BME280;22233;42.708;23.360;2024-02-21T01:05:05;96026.34;;;6.75;74.46
36192;BME280;22233;42.708;23.360;2024-02-21T01:07:30;96017.34;;;7.06;73.33
36192;BME280;22233;42.708;23.360;2024-02-21T01:09:56;96016.19;;;7.27;73.16
36192;BME280;22233;42.708;23.360;2024-02-21T01:12:21;96009.13;;;7.36;72.26
36192;BME280;22233;42.708;23.360;2024-02-21T01:14:47;96000.31;;;7.10;73.10
36192;BME280;22233;42.708;23.360;2024-02-21T01:17:12;96009.59;;;6.73;74.19
36192;BME280;22233;42.708;23.360;2024-02-21T01:19:38;96005.72;;;7.10;73.27
36192;BME280;22233;42.708;23.360;2024-02-21T01:22:04;95989.97;;;7.28;72.70
36192;BME280;22233;42.708;23.360;2024-02-21T01:24:29;95984.56;;;6.52;75.14
36192;BME280;22233;42.708;23.360;2024-02-21T01:26:54;95987.16;;;6.78;74.10
36192;BME280;22233;42.708;23.360;2024-02-21T01:29:20;96002.03;;;6.80;74.79
36192;BME280;22233;42.708;23.360;2024-02-21T01:31:45;95999.31;;;6.86;74.23
36192;BME280;22233;42.708;23.360;2024-02-21T01:34:12;95994.16;;;6.89;74.07
36192;BME280;22233;42.708;23.360;2024-02-21T01:36:38;95996.34;;;6.82;74.30
36192;BME280;22233;42.708;23.360;2024-02-21T01:39:03;95979.81;;;6.99;73.45
36192;BME280;22233;42.708;23.360;2024-02-21T01:41:31;95990.53;;;7.19;73.16
36192;BME280;22233;42.708;23.360;2024-02-21T01:43:57;95988.94;;;7.18;72.89
36192;BME280;22233;42.708;23.360;2024-02-21T01:46:23;95972.69;;;7.29;72.38
36192;BME280;22233;42.708;23.360;2024-02-21T01:48:53;95957.41;;;7.53;71.50
36192;BME280;22233;42.708;23.360;2024-02-21T01:51:19;95977.84;;;7.70;71.07
36192;BME280;22233;42.708;23.360;2024-02-21T01:53:45;95988.72;;;7.59;70.80
36192;BME280;22233;42.708;23.360;2024-02-21T01:56:12;95964.38;;;7.65;70.36
36192;BME280;22233;42.708;23.360;2024-02-21T01:58:39;95970.84;;;7.64;70.72
36192;BME280;22233;42.708;23.360;2024-02-21T02:01:06;95975.28;;;7.89;69.98
36192;BME280;22233;42.708;23.360;2024-02-21T02:03:31;95974.97;;;7.95;69.34
36192;BME280;22233;42.708;23.360;2024-02-21T02:05:57;95982.06;;;7.42;71.87
36192;BME280;22233;42.708;23.360;2024-02-21T02:08:22;95977.31;;;7.68;70.53
36192;BME280;22233;42.708;23.360;2024-02-21T02:10:48;95985.41;;;7.73;69.91
36192;BME280;22233;42.708;23.360;2024-02-21T02:13:14;95986.34;;;7.53;71.09
36192;BME280;22233;42.708;23.360;2024-02-21T02:15:44;95986.13;;;7.84;69.36
36192;BME280;22233;42.708;23.360;2024-02-21T02:18:10;95976.09;;;7.89;68.91
36192;BME280;22233;42.708;23.360;2024-02-21T02:20:36;95974.75;;;7.47;70.00
36192;BME280;22233;42.708;23.360;2024-02-21T02:23:10;95980.22;;;7.32;71.74
36192;BME280;22233;42.708;23.360;2024-02-21T02:25:37;95950.91;;;6.99;72.03
36192;BME280;22233;42.708;23.360;2024-02-21T02:28:04;95958.19;;;7.04;72.48
36192;BME280;22233;42.708;23.360;2024-02-21T02:30:32;95952.75;;;7.09;72.02
36192;BME280;22233;42.708;23.360;2024-02-21T02:32:58;95955.50;;;7.54;71.63
36192;BME280;22233;42.708;23.360;2024-02-21T02:35:23;95965.25;;;7.50;70.58
36192;BME280;22233;42.708;23.360;2024-02-21T02:37:49;95966.69;;;7.32;72.01
36192;BME280;22233;42.708;23.360;2024-02-21T02:40:15;95961.88;;;7.68;69.97
36192;BME280;22233;42.708;23.360;2024-02-21T02:42:40;95966.53;;;7.63;70.69
36192;BME280;22233;42.708;23.360;2024-02-21T02:45:06;95962.63;;;7.39;71.23
36192;BME280;22233;42.708;23.360;2024-02-21T02:47:32;95953.59;;;7.54;71.14
36192;BME280;22233;42.708;23.360;2024-02-21T02:49:59;95962.75;;;7.58;70.74
36192;BME280;22233;42.708;23.360;2024-02-21T02:52:25;95970.53;;;7.26;72.58
36192;BME280;22233;42.708;23.360;2024-02-21T02:54:50;95979.41;;;7.31;73.12
36192;BME280;22233;42.708;23.360;2024-02-21T02:57:17;95955.16;;;7.66;70.87
36192;BME280;22233;42.708;23.360;2024-02-21T02:59:50;95983.19;;;7.80;70.91
36192;BME280;22233;42.708;23.360;2024-02-21T03:02:15;95968.44;;;7.96;69.76
36192;BME280;22233;42.708;23.360;2024-02-21T03:04:41;95975.59;;;7.43;71.31
36192;BME280;22233;42.708;23.360;2024-02-21T03:07:06;95970.69;;;7.84;70.29
36192;BME280;22233;42.708;23.360;2024-02-21T03:09:32;95963.25;;;7.66;71.01
36192;BME280;22233;42.708;23.360;2024-02-21T03:11:57;95954.03;;;7.72;70.10
36192;BME280;22233;42.708;23.360;2024-02-21T03:14:31;95958.38;;;7.68;70.05
36192;BME280;22233;42.708;23.360;2024-02-21T03:16:59;95980.75;;;7.78;69.05
36192;BME280;22233;42.708;23.360;2024-02-21T03:19:25;95980.53;;;7.70;70.21
36192;BME280;22233;42.708;23.360;2024-02-21T03:21:51;95982.19;;;7.71;70.32
36192;BME280;22233;42.708;23.360;2024-02-21T03:24:17;95981.00;;;7.43;70.99
36192;BME280;22233;42.708;23.360;2024-02-21T03:26:42;95967.09;;;7.59;70.31
36192;BME280;22233;42.708;23.360;2024-02-21T03:29:08;95977.72;;;7.46;70.90
36192;BME280;22233;42.708;23.360;2024-02-21T03:31:37;95974.41;;;7.59;70.56
36192;BME280;22233;42.708;23.360;2024-02-21T03:34:02;95977.25;;;7.33;71.63
36192;BME280;22233;42.708;23.360;2024-02-21T03:36:28;95997.16;;;7.53;71.26
36192;BME280;22233;42.708;23.360;2024-02-21T03:38:54;95957.59;;;7.17;71.48
36192;BME280;22233;42.708;23.360;2024-02-21T03:41:20;95983.59;;;7.03;73.85
36192;BME280;22233;42.708;23.360;2024-02-21T03:43:45;95986.25;;;7.13;72.29
36192;BME280;22233;42.708;23.360;2024-02-21T03:46:11;95998.94;;;7.68;70.62
36192;BME280;22233;42.708;23.360;2024-02-21T03:48:36;95991.53;;;7.89;69.10
36192;BME280;22233;42.708;23.360;2024-02-21T03:51:02;96001.97;;;8.00;68.91
36192;BME280;22233;42.708;23.360;2024-02-21T03:53:27;95995.38;;;7.77;68.91
36192;BME280;22233;42.708;23.360;2024-02-21T03:55:53;95965.44;;;7.64;68.81
36192;BME280;22233;42.708;23.360;2024-02-21T03:58:20;96000.38;;;7.55;70.03
36192;BME280;22233;42.708;23.360;2024-02-21T04:00:45;95995.84;;;7.45;70.58
36192;BME280;22233;42.708;23.360;2024-02-21T04:03:10;96001.66;;;7.68;70.37
36192;BME280;22233;42.708;23.360;2024-02-21T04:05:36;95995.19;;;7.58;69.59
36192;BME280;22233;42.708;23.360;2024-02-21T04:08:04;95997.56;;;7.70;69.51
36192;BME280;22233;42.708;23.360;2024-02-21T04:10:30;95991.22;;;7.46;70.83
36192;BME280;22233;42.708;23.360;2024-02-21T04:12:55;95969.91;;;7.39;69.92
36192;BME280;22233;42.708;23.360;2024-02-21T04:15:20;95978.31;;;7.32;70.76
36192;BME280;22233;42.708;23.360;2024-02-21T04:17:46;95996.56;;;7.56;70.39
36192;BME280;22233;42.708;23.360;2024-02-21T04:20:16;95992.63;;;7.83;69.51
36192;BME280;22233;42.708;23.360;2024-02-21T04:22:44;95983.22;;;7.75;69.90
36192;BME280;22233;42.708;23.360;2024-02-21T04:25:10;95989.72;;;7.74;68.89
36192;BME280;22233;42.708;23.360;2024-02-21T04:27:36;95992.78;;;7.96;69.03
36192;BME280;22233;42.708;23.360;2024-02-21T04:30:02;95975.25;;;7.49;69.61
36192;BME280;22233;42.708;23.360;2024-02-21T04:32:28;95987.25;;;7.33;70.61
36192;BME280;22233;42.708;23.360;2024-02-21T04:34:53;95993.47;;;7.28;70.92
36192;BME280;22233;42.708;23.360;2024-02-21T04:37:20;95979.09;;;7.38;71.18
36192;BME280;22233;42.708;23.360;2024-02-21T04:39:45;95987.81;;;7.74;69.46
36192;BME280;22233;42.708;23.360;2024-02-21T04:42:11;95988.00;;;7.88;68.75
36192;BME280;22233;42.708;23.360;2024-02-21T04:44:36;96000.44;;;7.89;68.29
36192;BME280;22233;42.708;23.360;2024-02-21T04:47:03;95991.78;;;7.87;68.59
36192;BME280;22233;42.708;23.360;2024-02-21T04:49:29;96002.16;;;7.75;69.44
36192;BME280;22233;42.708;23.360;2024-02-21T04:51:55;95984.50;;;7.38;71.12
36192;BME280;22233;42.708;23.360;2024-02-21T04:54:20;95997.75;;;7.39;70.02
36192;BME280;22233;42.708;23.360;2024-02-21T04:56:45;95965.97;;;7.66;68.28
36192;BME280;22233;42.708;23.360;2024-02-21T04:59:11;96005.16;;;7.68;69.29
36192;BME280;22233;42.708;23.360;2024-02-21T05:01:36;95993.16;;;7.85;68.98
36192;BME280;22233;42.708;23.360;2024-02-21T05:04:01;96007.75;;;7.39;70.13
36192;BME280;22233;42.708;23.360;2024-02-21T05:06:27;95997.97;;;7.48;70.21
36192;BME280;22233;42.708;23.360;2024-02-21T05:08:53;96010.13;;;7.51;70.73
36192;BME280;22233;42.708;23.360;2024-02-21T05:11:20;96003.38;;;7.48;70.14
36192;BME280;22233;42.708;23.360;2024-02-21T05:13:46;96008.56;;;7.84;69.41
36192;BME280;22233;42.708;23.360;2024-02-21T05:16:11;96007.19;;;7.92;69.33
36192;BME280;22233;42.708;23.360;2024-02-21T05:18:36;96003.59;;;8.02;69.28
36192;BME280;22233;42.708;23.360;2024-02-21T05:21:02;96019.72;;;8.17;69.43
36192;BME280;22233;42.708;23.360;2024-02-21T05:23:27;95998.19;;;8.02;69.29
36192;BME280;22233;42.708;23.360;2024-02-21T05:25:53;96015.47;;;8.06;68.88
36192;BME280;22233;42.708;23.360;2024-02-21T05:28:18;96002.38;;;7.84;70.01
36192;BME280;22233;42.708;23.360;2024-02-21T05:30:43;96011.25;;;7.89;69.65
36192;BME280;22233;42.708;23.360;2024-02-21T05:33:09;96006.31;;;7.96;69.84
36192;BME280;22233;42.708;23.360;2024-02-21T05:35:35;96001.50;;;7.93;69.38
36192;BME280;22233;42.708;23.360;2024-02-21T05:38:01;96001.63;;;7.73;69.97
36192;BME280;22233;42.708;23.360;2024-02-21T05:40:29;95998.81;;;7.88;70.00
36192;BME280;22233;42.708;23.360;2024-02-21T05:42:54;96014.69;;;8.00;69.79
36192;BME280;22233;42.708;23.360;2024-02-21T05:45:20;95990.53;;;8.09;69.04
36192;BME280;22233;42.708;23.360;2024-02-21T05:47:45;96016.69;;;8.24;68.67
36192;BME280;22233;42.708;23.360;2024-02-21T05:50:11;96014.22;;;8.27;68.61
36192;BME280;22233;42.708;23.360;2024-02-21T05:52:36;96008.41;;;8.10;69.09
36192;BME280;22233;42.708;23.360;2024-02-21T05:55:02;96026.75;;;8.13;69.30
36192;BME280;22233;42.708;23.360;2024-02-21T05:57:28;96028.41;;;8.09;69.57
36192;BME280;22233;42.708;23.360;2024-02-21T05:59:53;96029.00;;;8.06;68.97
36192;BME280;22233;42.708;23.360;2024-02-21T06:02:19;96006.16;;;7.83;69.29
36192;BME280;22233;42.708;23.360;2024-02-21T06:04:45;96031.63;;;8.16;69.30
36192;BME280;22233;42.708;23.360;2024-02-21T06:07:11;96022.97;;;8.19;68.85
36192;BME280;22233;42.708;23.360;2024-02-21T06:09:36;96043.63;;;8.39;68.29
36192;BME280;22233;42.708;23.360;2024-02-21T06:12:02;96039.34;;;8.33;68.04
36192;BME280;22233;42.708;23.360;2024-02-21T06:14:27;96039.91;;;7.90;69.66
36192;BME280;22233;42.708;23.360;2024-02-21T06:16:53;96038.44;;;8.08;69.33
36192;BME280;22233;42.708;23.360;2024-02-21T06:19:18;96045.38;;;7.85;69.16
36192;BME280;22233;42.708;23.360;2024-02-21T06:21:43;96050.25;;;7.83;69.84
36192;BME280;22233;42.708;23.360;2024-02-21T06:24:09;96038.19;;;8.05;69.56
36192;BME280;22233;42.708;23.360;2024-02-21T06:26:34;96052.38;;;7.91;70.53
36192;BME280;22233;42.708;23.360;2024-02-21T06:29:00;96050.59;;;8.11;69.70
36192;BME280;22233;42.708;23.360;2024-02-21T06:31:25;96028.03;;;8.60;82.61
36192;BME280;22233;42.708;23.360;2024-02-21T06:33:51;96062.47;;;10.18;80.54
36192;BME280;22233;42.708;23.360;2024-02-21T06:36:16;96056.50;;;10.02;66.80
36192;BME280;22233;42.708;23.360;2024-02-21T06:38:42;96062.22;;;9.57;63.72
36192;BME280;22233;42.708;23.360;2024-02-21T06:41:17;96056.88;;;8.75;65.11
36192;BME280;22233;42.708;23.360;2024-02-21T06:43:44;96074.47;;;9.07;64.63
36192;BME280;22233;42.708;23.360;2024-02-21T06:46:11;96065.53;;;8.48;67.23
36192;BME280;22233;42.708;23.360;2024-02-21T06:48:36;96079.50;;;8.60;66.71
36192;BME280;22233;42.708;23.360;2024-02-21T06:51:02;96065.50;;;8.82;65.37
36192;BME280;22233;42.708;23.360;2024-02-21T06:53:28;96068.03;;;7.94;69.71
36192;BME280;22233;42.708;23.360;2024-02-21T06:55:53;96066.44;;;7.88;69.45
36192;BME280;22233;42.708;23.360;2024-02-21T06:58:19;96056.06;;;8.06;67.70
36192;BME280;22233;42.708;23.360;2024-02-21T07:00:44;96080.00;;;8.23;68.00
36192;BME280;22233;42.708;23.360;2024-02-21T07:03:10;96071.41;;;8.15;67.50
36192;BME280;22233;42.708;23.360;2024-02-21T07:05:35;96071.91;;;7.78;69.95
36192;BME280;22233;42.708;23.360;2024-02-21T07:08:01;96083.25;;;7.85;69.95
36192;BME280;22233;42.708;23.360;2024-02-21T07:10:27;96090.13;;;7.57;70.29
36192;BME280;22233;42.708;23.360;2024-02-21T07:12:54;96086.09;;;7.49;71.77
36192;BME280;22233;42.708;23.360;2024-02-21T07:15:19;96073.75;;;7.33;71.31
36192;BME280;22233;42.708;23.360;2024-02-21T07:17:45;96076.25;;;7.74;70.89
36192;BME280;22233;42.708;23.360;2024-02-21T07:20:10;96063.66;;;7.98;69.41
36192;BME280;22233;42.708;23.360;2024-02-21T07:22:35;96063.22;;;8.26;68.19
36192;BME280;22233;42.708;23.360;2024-02-21T07:25:01;96084.34;;;8.63;67.60
36192;BME280;22233;42.708;23.360;2024-02-21T07:27:26;96090.66;;;8.88;66.54
36192;BME280;22233;42.708;23.360;2024-02-21T07:29:56;96069.09;;;8.33;67.64
36192;BME280;22233;42.708;23.360;2024-02-21T07:32:21;96088.41;;;8.66;66.27
36192;BME280;22233;42.708;23.360;2024-02-21T07:34:46;96071.16;;;8.17;69.08
36192;BME280;22233;42.708;23.360;2024-02-21T07:37:12;96077.66;;;8.11;68.27
36192;BME280;22233;42.708;23.360;2024-02-21T07:39:37;96090.38;;;8.15;68.80
36192;BME280;22233;42.708;23.360;2024-02-21T07:42:03;96082.94;;;8.31;68.70
36192;BME280;22233;42.708;23.360;2024-02-21T07:44:28;96091.03;;;8.42;67.78
36192;BME280;22233;42.708;23.360;2024-02-21T07:46:53;96089.09;;;8.47;67.88
36192;BME280;22233;42.708;23.360;2024-02-21T07:49:19;96092.81;;;8.12;68.01
36192;BME280;22233;42.708;23.360;2024-02-21T07:51:44;96068.88;;;7.85;69.48
36192;BME280;22233;42.708;23.360;2024-02-21T07:54:09;96080.13;;;8.47;67.32
36192;BME280;22233;42.708;23.360;2024-02-21T07:56:35;96082.09;;;8.75;66.18
36192;BME280;22233;42.708;23.360;2024-02-21T07:59:00;96082.63;;;8.77;67.42
36192;BME280;22233;42.708;23.360;2024-02-21T08:01:25;96056.19;;;8.64;67.12
36192;BME280;22233;42.708;23.360;2024-02-21T08:03:51;96073.31;;;8.54;68.25
36192;BME280;22233;42.708;23.360;2024-02-21T08:06:16;96076.00;;;8.59;67.72
36192;BME280;22233;42.708;23.360;2024-02-21T08:08:42;96075.41;;;8.63;67.00
36192;BME280;22233;42.708;23.360;2024-02-21T08:11:07;96076.56;;;8.86;67.06
36192;BME280;22233;42.708;23.360;2024-02-21T08:13:33;96082.72;;;8.91;67.32
36192;BME280;22233;42.708;23.360;2024-02-21T08:15:58;96062.16;;;8.90;66.41
36192;BME280;22233;42.708;23.360;2024-02-21T08:18:23;96078.41;;;8.90;66.65
36192;BME280;22233;42.708;23.360;2024-02-21T08:20:48;96073.19;;;8.99;65.81
36192;BME280;22233;42.708;23.360;2024-02-21T08:23:18;96078.94;;;9.22;64.90
36192;BME280;22233;42.708;23.360;2024-02-21T08:25:44;96073.59;;;9.35;63.91
36192;BME280;22233;42.708;23.360;2024-02-21T08:28:09;96073.66;;;9.54;63.65
36192;BME280;22233;42.708;23.360;2024-02-21T08:30:34;96089.53;;;9.66;63.06
36192;BME280;22233;42.708;23.360;2024-02-21T08:33:00;96080.06;;;9.39;62.19
36192;BME280;22233;42.708;23.360;2024-02-21T08:35:25;96074.53;;;9.50;63.62
36192;BME280;22233;42.708;23.360;2024-02-21T08:37:51;96077.50;;;9.00;63.46
36192;BME280;22233;42.708;23.360;2024-02-21T08:40:16;96078.94;;;9.22;63.07
36192;BME280;22233;42.708;23.360;2024-02-21T08:42:46;96075.66;;;9.44;63.44
36192;BME280;22233;42.708;23.360;2024-02-21T08:45:12;96080.91;;;9.59;62.58
36192;BME280;22233;42.708;23.360;2024-02-21T08:47:40;96076.00;;;9.61;61.96
36192;BME280;22233;42.708;23.360;2024-02-21T08:50:07;96080.88;;;9.40;62.40
36192;BME280;22233;42.708;23.360;2024-02-21T08:52:32;96064.22;;;9.04;63.76
36192;BME280;22233;42.708;23.360;2024-02-21T08:54:58;96083.53;;;9.45;62.01
36192;BME280;22233;42.708;23.360;2024-02-21T08:57:23;96075.22;;;9.79;62.47
36192;BME280;22233;42.708;23.360;2024-02-21T08:59:48;96067.97;;;9.32;62.12
36192;BME280;22233;42.708;23.360;2024-02-21T09:02:14;96066.09;;;9.27;63.30
36192;BME280;22233;42.708;23.360;2024-02-21T09:04:41;96070.78;;;8.63;63.40
36192;BME280;22233;42.708;23.360;2024-02-21T09:07:06;96078.28;;;8.76;63.94
36192;BME280;22233;42.708;23.360;2024-02-21T09:09:32;96079.66;;;8.74;64.86
36192;BME280;22233;42.708;23.360;2024-02-21T09:11:58;96074.59;;;8.62;65.24
36192;BME280;22233;42.708;23.360;2024-02-21T09:14:31;96076.03;;;9.13;63.63
36192;BME280;22233;42.708;23.360;2024-02-21T09:16:56;96067.09;;;8.83;65.21
36192;BME280;22233;42.708;23.360;2024-02-21T09:19:21;96075.28;;;9.31;63.62
36192;BME280;22233;42.708;23.360;2024-02-21T09:21:47;96077.19;;;9.55;61.18
36192;BME280;22233;42.708;23.360;2024-02-21T09:24:13;96078.84;;;9.51;61.33
36192;BME280;22233;42.708;23.360;2024-02-21T09:26:38;96083.97;;;9.04;62.56
36192;BME280;22233;42.708;23.360;2024-02-21T09:29:04;96065.03;;;8.99;62.99
36192;BME280;22233;42.708;23.360;2024-02-21T09:31:29;96067.84;;;9.18;63.00
36192;BME280;22233;42.708;23.360;2024-02-21T09:33:55;96069.94;;;8.97;62.59
36192;BME280;22233;42.708;23.360;2024-02-21T09:36:20;96075.06;;;9.28;62.01
36192;BME280;22233;42.708;23.360;2024-02-21T09:38:46;96074.31;;;9.46;61.81
36192;BME280;22233;42.708;23.360;2024-02-21T09:41:16;96068.75;;;9.56;60.72
36192;BME280;22233;42.708;23.360;2024-02-21T09:43:45;96058.72;;;9.33;60.10
36192;BME280;22233;42.708;23.360;2024-02-21T09:46:18;96074.97;;;9.57;60.60
36192;BME280;22233;42.708;23.360;2024-02-21T09:49:04;96080.06;;;9.39;59.93
36192;BME280;22233;42.708;23.360;2024-02-21T09:51:34;96075.63;;;9.49;60.00
36192;BME280;22233;42.708;23.360;2024-02-21T09:54:00;96077.31;;;9.45;61.03
36192;BME280;22233;42.708;23.360;2024-02-21T09:56:26;96061.81;;;9.69;59.54
36192;BME280;22233;42.708;23.360;2024-02-21T09:58:51;96062.56;;;9.75;59.89
36192;BME280;22233;42.708;23.360;2024-02-21T10:01:16;96068.94;;;9.84;58.55
36192;BME280;22233;42.708;23.360;2024-02-21T10:03:42;96060.97;;;9.93;57.99
36192;BME280;22233;42.708;23.360;2024-02-21T10:06:09;96044.00;;;10.20;57.92
36192;BME280;22233;42.708;23.360;2024-02-21T10:08:34;96060.22;;;9.87;57.92
36192;BME280;22233;42.708;23.360;2024-02-21T10:11:00;96048.34;;;10.02;57.71
36192;BME280;22233;42.708;23.360;2024-02-21T10:13:30;96047.66;;;10.29;55.14
36192;BME280;22233;42.708;23.360;2024-02-21T10:16:07;96060.44;;;10.48;57.99
36192;BME280;22233;42.708;23.360;2024-02-21T10:18:36;96050.75;;;10.04;56.85
36192;BME280;22233;42.708;23.360;2024-02-21T10:21:06;96017.75;;;9.96;57.15
36192;BME280;22233;42.708;23.360;2024-02-21T10:23:45;96047.81;;;10.57;57.41
36192;BME280;22233;42.708;23.360;2024-02-21T10:26:12;96041.50;;;10.75;56.09
36192;BME280;22233;42.708;23.360;2024-02-21T10:28:38;96034.78;;;10.73;55.67
36192;BME280;22233;42.708;23.360;2024-02-21T10:31:08;96029.72;;;10.80;54.70
36192;BME280;22233;42.708;23.360;2024-02-21T10:33:34;96028.25;;;10.88;55.04
36192;BME280;22233;42.708;23.360;2024-02-21T10:36:09;96016.88;;;10.86;54.83
36192;BME280;22233;42.708;23.360;2024-02-21T10:38:39;96014.69;;;11.15;54.85
36192;BME280;22233;42.708;23.360;2024-02-21T10:41:09;96010.84;;;11.16;53.83
36192;BME280;22233;42.708;23.360;2024-02-21T10:43:39;95996.06;;;10.95;53.27
36192;BME280;22233;42.708;23.360;2024-02-21T10:46:06;95976.72;;;11.10;52.66
36192;BME280;22233;42.708;23.360;2024-02-21T10:48:43;95978.91;;;11.36;50.89
36192;BME280;22233;42.708;23.360;2024-02-21T10:51:16;95975.78;;;11.29;51.72
36192;BME280;22233;42.708;23.360;2024-02-21T10:56:32;95963.16;;;11.60;48.49
36192;BME280;22233;42.708;23.360;2024-02-21T10:59:06;95979.13;;;11.26;49.66
36192;BME280;22233;42.708;23.360;2024-02-21T11:01:32;95967.03;;;11.82;48.85
36192;BME280;22233;42.708;23.360;2024-02-21T11:04:08;95958.81;;;11.73;49.28
36192;BME280;22233;42.708;23.360;2024-02-21T11:06:35;95957.56;;;12.38;48.47
36192;BME280;22233;42.708;23.360;2024-02-21T11:09:05;95962.75;;;12.49;47.83
36192;BME280;22233;42.708;23.360;2024-02-21T11:11:40;95949.00;;;12.54;46.40
36192;BME280;22233;42.708;23.360;2024-02-21T11:16:39;95944.53;;;12.58;45.88
36192;BME280;22233;42.708;23.360;2024-02-21T11:19:08;95954.03;;;13.09;46.15
36192;BME280;22233;42.708;23.360;2024-02-21T11:21:35;95928.94;;;12.50;46.29
36192;BME280;22233;42.708;23.360;2024-02-21T11:24:04;95942.25;;;12.29;45.19
36192;BME280;22233;42.708;23.360;2024-02-21T11:26:31;95931.81;;;12.22;46.34
36192;BME280;22233;42.708;23.360;2024-02-21T11:29:02;95926.16;;;12.72;44.65
36192;BME280;22233;42.708;23.360;2024-02-21T11:31:43;95947.19;;;12.81;44.48
36192;BME280;22233;42.708;23.360;2024-02-21T11:34:10;95939.34;;;12.48;44.62
36192;BME280;22233;42.708;23.360;2024-02-21T11:36:36;95926.72;;;12.52;44.64
36192;BME280;22233;42.708;23.360;2024-02-21T11:39:04;95926.78;;;12.69;44.24
36192;BME280;22233;42.708;23.360;2024-02-21T11:41:31;95900.50;;;12.11;45.91
36192;BME280;22233;42.708;23.360;2024-02-21T11:43:56;95928.72;;;12.37;46.28
36192;BME280;22233;42.708;23.360;2024-02-21T11:46:21;95924.75;;;12.44;46.52
36192;BME280;22233;42.708;23.360;2024-02-21T11:48:48;95928.34;;;12.30;46.98
36192;BME280;22233;42.708;23.360;2024-02-21T11:51:24;95917.78;;;12.06;47.26
36192;BME280;22233;42.708;23.360;2024-02-21T11:53:52;95902.94;;;11.76;47.60
36192;BME280;22233;42.708;23.360;2024-02-21T11:56:18;95921.97;;;11.90;47.92
36192;BME280;22233;42.708;23.360;2024-02-21T11:58:46;95920.59;;;11.65;48.10
36192;BME280;22233;42.708;23.360;2024-02-21T12:01:11;95915.41;;;11.54;47.84
36192;BME280;22233;42.708;23.360;2024-02-21T12:03:37;95909.31;;;11.35;48.04
36192;BME280;22233;42.708;23.360;2024-02-21T12:06:02;95922.72;;;11.31;49.43
36192;BME280;22233;42.708;23.360;2024-02-21T12:08:40;95923.75;;;11.22;49.53
36192;BME280;22233;42.708;23.360;2024-02-21T12:11:24;95905.84;;;10.93;50.68
36192;BME280;22233;42.708;23.360;2024-02-21T12:14:02;95911.25;;;11.20;50.00
36192;BME280;22233;42.708;23.360;2024-02-21T12:16:32;95887.41;;;10.90;49.54
36192;BME280;22233;42.708;23.360;2024-02-21T12:18:58;95909.91;;;11.32;49.19
36192;BME280;22233;42.708;23.360;2024-02-21T12:21:25;95892.41;;;11.10;49.61
36192;BME280;22233;42.708;23.360;2024-02-21T12:23:51;95900.50;;;11.02;50.91
36192;BME280;22233;42.708;23.360;2024-02-21T12:26:16;95907.84;;;11.01;49.52
36192;BME280;22233;42.708;23.360;2024-02-21T12:28:41;95883.47;;;11.10;49.76
36192;BME280;22233;42.708;23.360;2024-02-21T12:31:07;95895.91;;;11.25;48.83
36192;BME280;22233;42.708;23.360;2024-02-21T12:33:32;95885.31;;;10.87;50.55
36192;BME280;22233;42.708;23.360;2024-02-21T12:35:58;95885.03;;;10.61;50.98
36192;BME280;22233;42.708;23.360;2024-02-21T12:38:23;95889.63;;;10.60;50.97
36192;BME280;22233;42.708;23.360;2024-02-21T12:40:49;95895.69;;;10.71;50.68
36192;BME280;22233;42.708;23.360;2024-02-21T12:43:15;95882.69;;;10.82;50.22
36192;BME280;22233;42.708;23.360;2024-02-21T12:45:40;95876.97;;;10.83;50.50
36192;BME280;22233;42.708;23.360;2024-02-21T12:48:06;95895.19;;;10.83;52.64
36192;BME280;22233;42.708;23.360;2024-02-21T12:50:31;95903.53;;;10.58;53.90
36192;BME280;22233;42.708;23.360;2024-02-21T12:52:57;95880.97;;;10.30;55.25
36192;BME280;22233;42.708;23.360;2024-02-21T12:55:23;95909.25;;;10.57;55.40
36192;BME280;22233;42.708;23.360;2024-02-21T12:57:49;95891.94;;;10.39;56.31
36192;BME280;22233;42.708;23.360;2024-02-21T13:00:14;95890.44;;;10.14;56.78